Royal Romance — ZGCE4 — position and weather

sailwx.info

Track history (hours):
 
Tides and Currents Weather Stations Pressure Air Temp Water Temp Dewpoint Dewpoint Depression Visibility Wind Speed Wind Dir Waves Ship Positions

Royal Romance

Last reported at 2016-Aug-26 14:18 UTC. Time now 2016-Aug-31 06:08 UTC.
Position N 42°35' E 018°08'.

Length 93 m; draft 3.9 m.

Type: Pleasure craft. MMSI: 319084100.

Date/timePositionNaut miles runAvg speedWind from/ knotsBaromVisibWave heightAir tempDewpointWater temp
2016-Aug-26 14:18N 42°35' E 018°08'1114.7
2016-Aug-26 13:32N 42°28' E 018°20'1010.6
2016-Aug-26 12:33N 42°26' E 018°34'5 5.2
2016-Aug-26 11:32N 42°26' E 018°41'0 0.0
2016-Aug-26 10:32N 42°26' E 018°41'0 0.0
2016-Aug-26 09:32N 42°26' E 018°41'0 0.0
2016-Aug-26 08:32N 42°26' E 018°41'0 0.0
2016-Aug-26 07:32N 42°26' E 018°41'0 0.0
2016-Aug-26 06:33N 42°26' E 018°41'9 4.7
2016-Aug-26 04:33N 42°18' E 018°36'1111.1
2016-Aug-26 03:32N 42°06' E 018°38'1212.0
2016-Aug-26 02:33N 41°55' E 018°41'  
2016-Aug-23 09:31N 22°20' E 114°05'8 8.0
2016-Aug-23 08:30N 22°18' E 114°13'2 1.7
2016-Aug-23 07:27N 22°17' E 114°15'0 0.0
2016-Aug-23 06:27N 22°17' E 114°15'0 0.0
2016-Aug-23 05:27N 22°17' E 114°15'0 0.0
2016-Aug-23 04:27N 22°17' E 114°15'4 4.9
2016-Aug-23 03:32N 22°17' E 114°10'5189103.8
2016-Aug-21 01:33N 37°52' E 015°52'1313.3
2016-Aug-21 00:34N 37°57' E 015°37'1414.2
2016-Aug-20 23:33N 38°12' E 015°35'1010.5
2016-Aug-20 22:34N 38°22' E 015°33'1414.3
2016-Aug-20 21:33N 38°25' E 015°15'1313.1
2016-Aug-20 20:32N 38°29' E 014°59'0 0.0
2016-Aug-20 19:31N 38°29' E 014°59'0 0.0
2016-Aug-20 12:31N 38°29' E 014°59'0 0.0
2016-Aug-20 09:10N 38°29' E 014°59'1 0.2
2016-Aug-20 04:31N 38°28' E 014°58'2 2.1
2016-Aug-20 03:33N 38°29' E 015°00'8 8.3
2016-Aug-20 02:33N 38°37' E 014°58'1211.8
2016-Aug-20 01:33N 38°48' E 014°53'10012.4
2016-Aug-19 17:26N 40°25' E 014°18'8 9.2
2016-Aug-19 16:33N 40°32' E 014°15'0 0.0
2016-Aug-19 15:33N 40°32' E 014°15'0 0.0
2016-Aug-19 14:30N 40°32' E 014°15'0 0.0
2016-Aug-17 14:33N 40°32' E 014°15'0 0.0
2016-Aug-17 07:18N 40°32' E 014°15'0 0.0
2016-Aug-17 05:30N 40°32' E 014°15'0 0.0
2016-Aug-17 04:24N 40°32' E 014°15'0 0.0
2016-Aug-17 00:15N 40°32' E 014°15'0 0.0
2016-Aug-16 23:27N 40°32' E 014°15'0 0.0
2016-Aug-16 22:18N 40°32' E 014°15'0 0.0
2016-Aug-16 14:33N 40°32' E 014°15'  
Track history (hours):
 
Tides and Currents Weather Stations Pressure Air Temp Water Temp Dewpoint Dewpoint Depression Visibility Wind Speed Wind Dir Waves Ship Positions

Royal Romance

Last reported at 2016-Aug-26 14:18 UTC. Time now 2016-Aug-31 06:08 UTC.
Position N 42°35' E 018°08'.

Length 93 m; draft 3.9 m.

Type: Pleasure craft. MMSI: 319084100.

Date/timePositionNaut miles runAvg speedWind from/ knotsBaromVisibWave heightAir tempDewpointWater temp
2016-Aug-26 14:18N 42°35' E 018°08'1114.7
2016-Aug-26 13:32N 42°28' E 018°20'1010.6
2016-Aug-26 12:33N 42°26' E 018°34'5 5.2
2016-Aug-26 11:32N 42°26' E 018°41'0 0.0
2016-Aug-26 10:32N 42°26' E 018°41'0 0.0
2016-Aug-26 09:32N 42°26' E 018°41'0 0.0
2016-Aug-26 08:32N 42°26' E 018°41'0 0.0
2016-Aug-26 07:32N 42°26' E 018°41'0 0.0
2016-Aug-26 06:33N 42°26' E 018°41'9 4.7
2016-Aug-26 04:33N 42°18' E 018°36'1111.1
2016-Aug-26 03:32N 42°06' E 018°38'1212.0
2016-Aug-26 02:33N 41°55' E 018°41'  
2016-Aug-23 09:31N 22°20' E 114°05'8 8.0
2016-Aug-23 08:30N 22°18' E 114°13'2 1.7
2016-Aug-23 07:27N 22°17' E 114°15'0 0.0
2016-Aug-23 06:27N 22°17' E 114°15'0 0.0
2016-Aug-23 05:27N 22°17' E 114°15'0 0.0
2016-Aug-23 04:27N 22°17' E 114°15'4 4.9
2016-Aug-23 03:32N 22°17' E 114°10'5189103.8
2016-Aug-21 01:33N 37°52' E 015°52'1313.3
2016-Aug-21 00:34N 37°57' E 015°37'1414.2
2016-Aug-20 23:33N 38°12' E 015°35'1010.5
2016-Aug-20 22:34N 38°22' E 015°33'1414.3
2016-Aug-20 21:33N 38°25' E 015°15'1313.1
2016-Aug-20 20:32N 38°29' E 014°59'0 0.0
2016-Aug-20 19:31N 38°29' E 014°59'0 0.0
2016-Aug-20 12:31N 38°29' E 014°59'0 0.0
2016-Aug-20 09:10N 38°29' E 014°59'1 0.2
2016-Aug-20 04:31N 38°28' E 014°58'2 2.1
2016-Aug-20 03:33N 38°29' E 015°00'8 8.3
2016-Aug-20 02:33N 38°37' E 014°58'1211.8
2016-Aug-20 01:33N 38°48' E 014°53'10012.4
2016-Aug-19 17:26N 40°25' E 014°18'8 9.2
2016-Aug-19 16:33N 40°32' E 014°15'0 0.0
2016-Aug-19 15:33N 40°32' E 014°15'0 0.0
2016-Aug-19 14:30N 40°32' E 014°15'0 0.0
2016-Aug-17 14:33N 40°32' E 014°15'0 0.0
2016-Aug-17 07:18N 40°32' E 014°15'0 0.0
2016-Aug-17 05:30N 40°32' E 014°15'0 0.0
2016-Aug-17 04:24N 40°32' E 014°15'0 0.0
2016-Aug-17 00:15N 40°32' E 014°15'0 0.0
2016-Aug-16 23:27N 40°32' E 014°15'0 0.0
2016-Aug-16 22:18N 40°32' E 014°15'0 0.0
2016-Aug-16 14:33N 40°32' E 014°15'  

Dump ship's entire track history